createdAt,value
2019-06-08T00:00:34.089Z,100781.23
2019-06-08T00:03:04.991Z,100783.03
2019-06-08T00:05:35.839Z,100775.94
2019-06-08T00:08:06.572Z,100772.64
2019-06-08T00:10:37.266Z,100762.86
2019-06-08T00:13:08.061Z,100767.29
2019-06-08T00:15:38.924Z,100762.86
2019-06-08T00:18:09.814Z,100757.42
2019-06-08T00:20:41.592Z,100764.39
2019-06-08T00:23:13.753Z,100761.50
2019-06-08T00:25:44.720Z,100759.16
2019-06-08T00:28:16.104Z,100762.61
2019-06-08T00:30:47.096Z,100754.16
2019-06-08T00:33:18.570Z,100761.69
2019-06-08T00:35:50.378Z,100773.56
2019-06-08T00:38:22.972Z,100765.52
2019-06-08T00:40:53.959Z,100767.22
2019-06-08T00:43:25.525Z,100766.86
2019-06-08T00:45:56.272Z,100772.84
2019-06-08T00:48:27.165Z,100771.91
2019-06-08T00:50:58.068Z,100770.81
2019-06-08T00:53:29.639Z,100768.36
2019-06-08T00:56:00.785Z,100768.56
2019-06-08T00:58:31.685Z,100774.75
2019-06-08T01:01:03.751Z,100762.66
2019-06-08T01:03:34.299Z,100762.66
2019-06-08T01:06:05.106Z,100774.52
2019-06-08T01:08:36.037Z,100768.52
2019-06-08T01:11:06.777Z,100770.03
2019-06-08T01:13:37.594Z,100750.77
2019-06-08T01:16:08.449Z,100762.35
2019-06-08T01:18:39.422Z,100769.23
2019-06-08T01:21:10.171Z,100754.45
2019-06-08T01:23:41.038Z,100772.42
2019-06-08T01:26:11.945Z,100779.16
2019-06-08T01:28:42.638Z,100782.22
2019-06-08T01:31:13.432Z,100785.11
2019-06-08T01:33:44.330Z,100778.86
2019-06-08T01:36:15.174Z,100778.97
2019-06-08T01:38:46.236Z,100776.63
2019-06-08T01:41:17.056Z,100775.36
2019-06-08T01:43:47.917Z,100775.26
2019-06-08T01:46:18.647Z,100778.20
2019-06-08T01:48:49.454Z,100782.39
2019-06-08T01:51:20.473Z,100776.39
2019-06-08T01:53:51.137Z,100778.30
2019-06-08T01:56:22.916Z,100773.33
2019-06-08T01:58:53.648Z,100779.01
2019-06-08T02:01:25.538Z,100785.44
2019-06-08T02:03:56.471Z,100782.78
2019-06-08T02:06:28.444Z,100787.08
2019-06-08T02:08:59.214Z,100785.58
2019-06-08T02:11:30.828Z,100784.58
2019-06-08T02:14:01.656Z,100785.54
2019-06-08T02:16:33.378Z,100783.84
2019-06-08T02:19:04.274Z,100789.23
2019-06-08T02:21:35.023Z,100791.97
2019-06-08T02:24:06.282Z,100799.56
2019-06-08T02:26:39.730Z,100797.97
2019-06-08T02:29:12.211Z,100792.33
2019-06-08T02:31:47.681Z,100796.37
2019-06-08T02:34:16.140Z,100798.11
2019-06-08T02:36:46.869Z,100795.38
2019-06-08T02:39:18.197Z,100798.19
2019-06-08T02:41:49.412Z,100795.69
2019-06-08T02:44:20.818Z,100800.47
2019-06-08T02:46:52.237Z,100807.52
2019-06-08T02:49:24.564Z,100806.16
2019-06-08T02:51:56.039Z,100809.30
2019-06-08T02:54:41.760Z,100809.13
2019-06-08T02:57:14.317Z,100816.12
2019-06-08T02:59:47.880Z,100813.56
2019-06-08T03:02:21.661Z,100826.70
2019-06-08T03:04:53.547Z,100832.88
2019-06-08T03:07:26.870Z,100831.23
2019-06-08T03:09:58.355Z,100837.39
2019-06-08T03:12:32.745Z,100849.27
2019-06-08T03:15:08.026Z,100842.80
2019-06-08T03:17:40.153Z,100848.08
2019-06-08T03:20:12.227Z,100852.59
2019-06-08T03:22:44.030Z,100854.44
2019-06-08T03:25:16.269Z,100853.70
2019-06-08T03:27:47.100Z,100857.57
2019-06-08T03:30:19.762Z,100859.88
2019-06-08T03:32:56.212Z,100851.88
2019-06-08T03:35:23.554Z,100853.84
2019-06-08T03:37:56.049Z,100856.84
2019-06-08T03:40:26.778Z,100857.73
2019-06-08T03:42:59.431Z,100859.81
2019-06-08T03:45:31.430Z,100858.97
2019-06-08T03:48:02.137Z,100859.58
2019-06-08T03:50:33.090Z,100859.38
2019-06-08T03:53:04.039Z,100859.84
2019-06-08T03:55:35.400Z,100869.32
2019-06-08T03:58:06.360Z,100873.69
2019-06-08T04:00:40.279Z,100873.98
2019-06-08T04:03:12.459Z,100880.80
2019-06-08T04:05:44.901Z,100874.16
2019-06-08T04:08:17.047Z,100878.17
2019-06-08T04:10:50.132Z,100869.35
2019-06-08T04:13:21.074Z,100874.41
2019-06-08T04:15:52.081Z,100869.38
2019-06-08T04:18:22.969Z,100871.04
2019-06-08T04:20:53.911Z,100878.09
2019-06-08T04:23:24.667Z,100870.55
2019-06-08T04:25:55.535Z,100878.66
2019-06-08T04:28:26.420Z,100878.64
2019-06-08T04:30:57.235Z,100872.64
2019-06-08T04:33:28.443Z,100876.48
2019-06-08T04:35:59.261Z,100887.08
2019-06-08T04:38:30.157Z,100888.12
2019-06-08T04:41:00.957Z,100884.77
2019-06-08T04:43:31.987Z,100891.74
2019-06-08T04:46:02.833Z,100902.46
2019-06-08T04:48:33.745Z,100900.23
2019-06-08T04:51:04.662Z,100906.37
2019-06-08T04:53:36.490Z,100920.77
2019-06-08T04:56:07.307Z,100928.89
2019-06-08T04:58:39.869Z,100920.12
2019-06-08T05:01:10.653Z,100921.28
2019-06-08T05:03:43.308Z,100925.27
2019-06-08T05:06:14.373Z,100931.32
2019-06-08T05:08:45.237Z,100944.12
2019-06-08T05:11:17.168Z,100947.86
2019-06-08T05:13:49.411Z,100955.30
2019-06-08T05:16:21.792Z,100955.87
2019-06-08T05:18:52.980Z,100969.75
2019-06-08T05:21:23.746Z,100968.02
2019-06-08T05:23:58.513Z,100967.51
2019-06-08T05:26:27.375Z,100971.78
2019-06-08T05:28:58.515Z,100968.47
2019-06-08T05:31:29.339Z,100968.67
2019-06-08T05:34:00.261Z,100977.44
2019-06-08T05:36:30.926Z,100982.27
2019-06-08T05:39:02.193Z,100980.22
2019-06-08T05:41:33.179Z,100983.03
2019-06-08T05:44:05.126Z,100981.75
2019-06-08T05:46:36.079Z,100986.13
2019-06-08T05:49:06.923Z,101001.60
2019-06-08T05:51:37.752Z,100996.97
2019-06-08T05:54:08.607Z,100993.80
2019-06-08T05:56:39.821Z,100998.41
2019-06-08T05:59:11.879Z,100994.16
2019-06-08T06:01:44.524Z,100995.69
2019-06-08T06:04:16.899Z,100998.72
2019-06-08T06:06:49.261Z,100999.95
2019-06-08T06:09:20.213Z,101000.34
2019-06-08T06:11:52.046Z,100997.91
2019-06-08T06:14:23.511Z,101003.48
2019-06-08T06:16:55.514Z,101008.31
2019-06-08T06:19:26.931Z,101027.48
2019-06-08T06:21:57.880Z,101025.02
2019-06-08T06:24:29.816Z,101033.60
2019-06-08T06:27:00.602Z,101036.94
2019-06-08T06:29:31.571Z,101035.42
2019-06-08T06:32:02.296Z,101048.28
2019-06-08T06:34:33.390Z,101053.14
2019-06-08T06:37:04.371Z,101055.09
2019-06-08T06:39:35.423Z,101052.24
2019-06-08T06:42:06.338Z,101049.94
2019-06-08T06:44:37.295Z,101051.48
2019-06-08T06:47:08.892Z,101058.50
2019-06-08T06:49:39.691Z,101056.23
2019-06-08T06:52:10.559Z,101057.23
2019-06-08T06:54:42.674Z,101048.05
2019-06-08T06:57:15.279Z,101052.59
2019-06-08T06:59:47.204Z,101055.62
2019-06-08T07:02:18.563Z,101054.16
2019-06-08T07:04:49.963Z,101059.95
2019-06-08T07:07:21.232Z,101046.84
2019-06-08T07:09:52.730Z,101051.54
2019-06-08T07:12:23.716Z,101045.94
2019-06-08T07:14:55.500Z,101047.14
2019-06-08T07:17:26.363Z,101055.25
2019-06-08T07:19:57.130Z,101071.27
2019-06-08T07:22:27.956Z,101079.08
2019-06-08T07:24:58.885Z,101083.86
2019-06-08T07:27:29.771Z,101086.02
2019-06-08T07:30:00.530Z,101091.44
2019-06-08T07:32:31.443Z,101095.16
2019-06-08T07:35:02.409Z,101089.33
2019-06-08T07:37:33.307Z,101099.41
2019-06-08T07:40:08.058Z,101094.84
2019-06-08T07:42:39.866Z,101105.20
2019-06-08T07:45:10.968Z,101112.30
2019-06-08T07:47:42.153Z,101121.59
2019-06-08T07:50:13.148Z,101123.57
2019-06-08T07:52:44.364Z,101114.45
2019-06-08T07:55:16.247Z,101119.75
2019-06-08T07:57:48.628Z,101122.98
2019-06-08T08:00:22.221Z,101120.09
2019-06-08T08:02:54.306Z,101134.00
2019-06-08T08:05:26.026Z,101130.36
2019-06-08T08:07:56.983Z,101134.97
2019-06-08T08:10:28.153Z,101136.04
2019-06-08T08:12:59.085Z,101140.26
2019-06-08T08:15:30.066Z,101140.69
2019-06-08T08:18:02.104Z,101147.72
2019-06-08T08:20:35.161Z,101144.84
2019-06-08T08:23:09.192Z,101137.22
2019-06-08T08:25:41.478Z,101151.45
2019-06-08T08:28:13.733Z,101154.31
2019-06-08T08:30:49.320Z,101150.16
2019-06-08T08:33:22.539Z,101163.70
2019-06-08T08:35:55.565Z,101169.43
2019-06-08T08:38:27.976Z,101164.86
2019-06-08T08:41:07.373Z,101172.78
2019-06-08T08:43:37.719Z,101181.77
2019-06-08T08:46:11.303Z,101179.27
2019-06-08T08:48:43.761Z,101180.80
2019-06-08T08:51:20.443Z,101186.66
2019-06-08T08:53:53.830Z,101175.64
2019-06-08T08:56:21.492Z,101198.30
2019-06-08T08:58:52.504Z,101205.33
2019-06-08T09:01:24.045Z,101211.77
2019-06-08T09:03:57.063Z,101221.77
2019-06-08T09:06:28.087Z,101232.71
2019-06-08T09:09:03.641Z,101226.38
2019-06-08T09:11:41.209Z,101227.27
2019-06-08T09:14:13.940Z,101223.56
2019-06-08T09:16:44.318Z,101235.88
2019-06-08T09:19:20.627Z,101229.55
2019-06-08T09:21:49.067Z,101244.77
2019-06-08T09:24:20.188Z,101247.49
2019-06-08T09:26:52.412Z,101250.83
2019-06-08T09:29:24.693Z,101243.38
2019-06-08T09:31:58.519Z,101260.91
2019-06-08T09:34:29.425Z,101256.11
2019-06-08T09:37:02.830Z,101256.87
2019-06-08T09:39:33.286Z,101246.70
2019-06-08T09:42:05.060Z,101236.59
2019-06-08T09:44:38.059Z,101283.47
2019-06-08T09:47:12.381Z,101285.27
2019-06-08T09:49:42.126Z,101294.87
2019-06-08T09:52:12.829Z,101290.81
2019-06-08T09:54:44.064Z,101305.41
2019-06-08T09:57:15.104Z,101295.48
2019-06-08T09:59:48.225Z,101305.59
2019-06-08T10:02:18.884Z,101305.98
2019-06-08T10:04:51.449Z,101318.82
2019-06-08T10:07:23.564Z,101315.36
2019-06-08T10:09:58.505Z,101310.88
2019-06-08T10:12:28.308Z,101316.21
2019-06-08T10:15:00.613Z,101323.42
2019-06-08T10:17:32.709Z,101322.48
2019-06-08T10:20:05.234Z,101312.73
2019-06-08T10:22:37.497Z,101309.47
2019-06-08T10:25:11.195Z,101317.12
2019-06-08T10:27:41.542Z,101318.58
2019-06-08T10:30:12.735Z,101322.73
2019-06-08T10:32:43.739Z,101333.02
2019-06-08T10:35:20.646Z,101341.94
2019-06-08T10:37:51.192Z,101336.95
2019-06-08T10:40:21.700Z,101339.67
2019-06-08T10:42:52.632Z,101341.94
2019-06-08T10:45:23.870Z,101345.25
2019-06-08T10:47:54.732Z,101349.01
2019-06-08T10:50:28.822Z,101340.59
2019-06-08T10:53:02.842Z,101354.07
2019-06-08T10:55:32.885Z,101348.59
2019-06-08T10:58:06.578Z,101357.52
2019-06-08T11:00:38.832Z,101355.11
2019-06-08T11:03:11.839Z,101354.59
2019-06-08T11:05:42.712Z,101353.88
2019-06-08T11:08:14.959Z,101364.03
2019-06-08T11:10:47.516Z,101365.02
2019-06-08T11:13:18.937Z,101364.00
2019-06-08T11:15:50.168Z,101361.83
2019-06-08T11:18:21.381Z,101366.59
2019-06-08T11:20:52.176Z,101372.84
2019-06-08T11:23:23.179Z,101381.55
2019-06-08T11:25:54.167Z,101385.39
2019-06-08T11:28:25.026Z,101387.95
2019-06-08T11:30:56.361Z,101397.41
2019-06-08T11:33:30.284Z,101394.12
2019-06-08T11:36:03.771Z,101393.19
2019-06-08T11:38:32.331Z,101400.62
2019-06-08T11:41:04.582Z,101402.35
2019-06-08T11:43:38.012Z,101404.41
2019-06-08T11:46:08.520Z,101412.33
2019-06-08T11:48:41.498Z,101414.41
2019-06-08T11:51:13.185Z,101413.77
2019-06-08T11:53:44.133Z,101415.03
2019-06-08T11:56:18.116Z,101416.58
2019-06-08T11:58:49.840Z,101405.91
2019-06-08T12:01:20.678Z,101396.48
2019-06-08T12:03:51.497Z,101408.12
2019-06-08T12:06:23.623Z,101405.23
2019-06-08T12:08:57.330Z,101399.70
2019-06-08T12:11:28.511Z,101402.03
2019-06-08T12:13:59.341Z,101403.73
2019-06-08T12:16:31.382Z,101405.86
2019-06-08T12:19:04.392Z,101409.36
2019-06-08T12:21:37.980Z,101400.03
2019-06-08T12:24:10.368Z,101405.78
2019-06-08T12:26:41.919Z,101404.84
2019-06-08T12:29:14.579Z,101402.13
2019-06-08T12:31:45.805Z,101405.19
2019-06-08T12:34:18.492Z,101407.63
2019-06-08T12:36:49.463Z,101403.14
2019-06-08T12:39:21.484Z,101397.23
2019-06-08T12:41:52.779Z,101397.91
2019-06-08T12:44:26.796Z,101396.58
2019-06-08T12:46:58.565Z,101392.92
2019-06-08T12:49:30.131Z,101391.61
2019-06-08T12:52:01.085Z,101378.28
2019-06-08T12:54:31.855Z,101375.57
2019-06-08T12:57:02.871Z,101383.61
2019-06-08T12:59:34.002Z,101381.08
2019-06-08T13:02:04.808Z,101385.45
2019-06-08T13:04:35.513Z,101382.97
2019-06-08T13:07:09.779Z,101382.63
2019-06-08T13:09:39.909Z,101388.77
2019-06-08T13:12:11.450Z,101385.03
2019-06-08T13:14:42.283Z,101387.28
2019-06-08T13:17:13.161Z,101387.73
2019-06-08T13:19:44.316Z,101378.98
2019-06-08T13:22:15.079Z,101379.27
2019-06-08T13:24:47.773Z,101383.30
2019-06-08T13:27:22.783Z,101382.97
2019-06-08T13:29:53.199Z,101382.55
2019-06-08T13:32:24.705Z,101380.08
2019-06-08T13:34:58.052Z,101378.28
2019-06-08T13:37:28.185Z,101380.80
2019-06-08T13:39:59.421Z,101383.75
2019-06-08T13:42:30.950Z,101384.96
2019-06-08T13:45:02.752Z,101384.61
2019-06-08T13:47:33.571Z,101389.13
2019-06-08T13:50:08.304Z,101385.84
2019-06-08T13:52:39.224Z,101380.62
2019-06-08T13:55:10.267Z,101386.34
2019-06-08T13:57:42.674Z,101385.39
2019-06-08T14:00:15.345Z,101375.97
2019-06-08T14:02:48.500Z,101378.48
2019-06-08T14:05:30.809Z,101379.77
2019-06-08T14:08:03.122Z,101394.91
2019-06-08T14:10:39.232Z,101390.34
2019-06-08T14:13:10.221Z,101399.30
2019-06-08T14:15:41.270Z,101396.66
2019-06-08T14:18:12.359Z,101394.39
2019-06-08T14:20:44.237Z,101399.60
2019-06-08T14:23:17.519Z,101398.60
2019-06-08T14:25:56.460Z,101399.09
2019-06-08T14:28:23.260Z,101403.27
2019-06-08T14:30:54.622Z,101406.63
2019-06-08T14:33:29.130Z,101411.14
2019-06-08T14:35:59.193Z,101422.33
2019-06-08T14:38:37.959Z,101423.38
2019-06-08T14:41:02.945Z,101422.83
2019-06-08T14:43:34.506Z,101422.88
2019-06-08T14:46:07.874Z,101423.77
2019-06-08T14:48:38.144Z,101429.78
2019-06-08T14:51:08.990Z,101414.36
2019-06-08T14:53:40.174Z,101419.13
2019-06-08T14:56:11.501Z,101426.03
2019-06-08T14:58:42.296Z,101422.13
2019-06-08T15:01:13.104Z,101414.59
2019-06-08T15:03:44.253Z,101407.73
2019-06-08T15:06:17.656Z,101406.09
2019-06-08T15:08:50.387Z,101405.41
2019-06-08T15:11:21.322Z,101412.89
2019-06-08T15:13:52.322Z,101417.47
2019-06-08T15:16:23.622Z,101420.78
2019-06-08T15:19:00.069Z,101404.81
2019-06-08T15:21:31.579Z,101413.52
2019-06-08T15:24:01.846Z,101405.66
2019-06-08T15:26:42.360Z,101412.63
2019-06-08T15:29:07.576Z,101410.21
2019-06-08T15:31:39.090Z,101409.61
2019-06-08T15:34:10.844Z,101412.39
2019-06-08T15:36:41.717Z,101422.53
2019-06-08T15:39:14.139Z,101428.70
2019-06-08T15:41:45.215Z,101429.52
2019-06-08T15:44:20.764Z,101429.85
2019-06-08T15:46:49.128Z,101439.09
2019-06-08T15:49:20.127Z,101441.16
2019-06-08T15:51:50.786Z,101443.16
2019-06-08T15:54:22.745Z,101442.78
2019-06-08T15:56:53.600Z,101443.07
2019-06-08T15:59:30.882Z,101442.92
2019-06-08T16:01:58.466Z,101452.42
2019-06-08T16:04:30.206Z,101457.23
2019-06-08T16:07:02.160Z,101448.74
2019-06-08T16:09:34.176Z,101454.02
2019-06-08T16:12:06.104Z,101454.16
2019-06-08T16:14:37.132Z,101461.44
2019-06-08T16:17:08.402Z,101463.16
2019-06-08T16:19:39.151Z,101459.55
2019-06-08T16:22:10.409Z,101465.22
2019-06-08T16:24:41.210Z,101459.88
2019-06-08T16:27:12.228Z,101462.23
2019-06-08T16:29:43.043Z,101464.46
2019-06-08T16:32:13.837Z,101469.95
2019-06-08T16:34:44.745Z,101474.80
2019-06-08T16:37:15.458Z,101477.73
2019-06-08T16:39:46.273Z,101476.53
2019-06-08T16:42:17.587Z,101476.53
2019-06-08T16:44:48.441Z,101480.98
2019-06-08T16:47:19.394Z,101488.06
2019-06-08T16:49:50.305Z,101491.22
2019-06-08T16:52:21.058Z,101489.30
2019-06-08T16:54:51.743Z,101483.06
2019-06-08T16:57:22.697Z,101492.86
2019-06-08T16:59:53.624Z,101492.11
2019-06-08T17:02:24.712Z,101501.15
2019-06-08T17:04:55.835Z,101501.50
2019-06-08T17:07:26.702Z,101499.98
2019-06-08T17:09:57.516Z,101494.02
2019-06-08T17:12:30.649Z,101504.61
2019-06-08T17:15:01.723Z,101495.56
2019-06-08T17:17:34.186Z,101493.14
2019-06-08T17:20:06.527Z,101502.05
2019-06-08T17:22:39.055Z,101499.39
2019-06-08T17:25:10.690Z,101497.57
2019-06-08T17:27:41.567Z,101496.78
2019-06-08T17:30:13.038Z,101511.48
2019-06-08T17:32:44.219Z,101503.97
2019-06-08T17:35:16.205Z,101509.41
2019-06-08T17:37:47.307Z,101513.66
2019-06-08T17:40:19.727Z,101516.06
2019-06-08T17:42:51.092Z,101514.09
2019-06-08T17:45:21.916Z,101518.72
2019-06-08T17:47:52.836Z,101516.56
2019-06-08T17:50:24.227Z,101521.31
2019-06-08T17:52:55.109Z,101529.56
2019-06-08T17:55:25.924Z,101520.59
2019-06-08T17:57:56.703Z,101518.72
2019-06-08T18:00:27.857Z,101529.80
2019-06-08T18:03:00.611Z,101527.09
2019-06-08T18:05:31.641Z,101536.09
2019-06-08T18:08:02.555Z,101527.94
2019-06-08T18:10:35.869Z,101526.15
2019-06-08T18:13:08.006Z,101527.63
2019-06-08T18:15:40.591Z,101529.56
2019-06-08T18:18:11.486Z,101524.36
2019-06-08T18:20:43.836Z,101529.17
2019-06-08T18:23:17.227Z,101529.48
2019-06-08T18:25:48.184Z,101540.09
2019-06-08T18:28:20.111Z,101542.20
2019-06-08T18:30:50.878Z,101545.75
2019-06-08T18:33:21.632Z,101543.85
2019-06-08T18:35:52.915Z,101551.30
2019-06-08T18:38:23.748Z,101558.38
2019-06-08T18:40:54.710Z,101565.51
2019-06-08T18:43:27.545Z,101567.34
2019-06-08T18:45:58.309Z,101576.37
2019-06-08T18:48:29.287Z,101576.91
2019-06-08T18:51:01.750Z,101577.00
2019-06-08T18:53:45.576Z,101583.98
2019-06-08T18:56:08.043Z,101590.06
2019-06-08T18:58:38.350Z,101596.98
2019-06-08T19:01:09.574Z,101606.25
2019-06-08T19:03:43.118Z,101609.55
2019-06-08T19:06:13.354Z,101619.51
2019-06-08T19:08:46.618Z,101621.25
2019-06-08T19:11:19.301Z,101626.89
2019-06-08T19:13:52.522Z,101631.95
2019-06-08T19:16:24.260Z,101631.40
2019-06-08T19:18:57.942Z,101632.24
2019-06-08T19:21:28.341Z,101628.29
2019-06-08T19:23:59.298Z,101642.71
2019-06-08T19:26:30.055Z,101641.41
2019-06-08T19:29:01.499Z,101643.92
2019-06-08T19:31:32.726Z,101650.20
2019-06-08T19:34:07.515Z,101656.38
2019-06-08T19:36:41.356Z,101655.30
2019-06-08T19:39:12.804Z,101660.41
2019-06-08T19:41:44.748Z,101660.44
2019-06-08T19:44:18.364Z,101659.47
2019-06-08T19:46:53.606Z,101661.80
2019-06-08T19:49:27.980Z,101669.72
2019-06-08T19:51:58.370Z,101676.75
2019-06-08T19:54:30.232Z,101675.41
2019-06-08T19:57:03.612Z,101686.12
2019-06-08T19:59:34.769Z,101687.87
2019-06-08T20:02:08.684Z,101687.61
2019-06-08T20:04:38.864Z,101692.53
2019-06-08T20:07:09.689Z,101693.41
2019-06-08T20:09:41.097Z,101703.19
2019-06-08T20:12:12.142Z,101704.28
2019-06-08T20:14:48.014Z,101704.09
2019-06-08T20:17:19.535Z,101703.77
2019-06-08T20:19:50.807Z,101705.52
2019-06-08T20:22:21.881Z,101713.22
2019-06-08T20:24:55.787Z,101719.11
2019-06-08T20:27:27.701Z,101718.08
2019-06-08T20:29:59.468Z,101725.69
2019-06-08T20:32:32.019Z,101722.48
2019-06-08T20:35:07.996Z,101724.63
2019-06-08T20:37:39.486Z,101732.38
2019-06-08T20:40:14.295Z,101731.50
2019-06-08T20:42:47.552Z,101733.39
2019-06-08T20:45:17.400Z,101732.77
2019-06-08T20:47:51.050Z,101735.50
2019-06-08T20:50:21.529Z,101737.45
2019-06-08T20:52:53.786Z,101743.52
2019-06-08T20:55:25.275Z,101745.55
2019-06-08T20:57:57.478Z,101755.80
2019-06-08T21:00:29.743Z,101747.20
2019-06-08T21:03:03.022Z,101745.96
2019-06-08T21:05:33.303Z,101749.96
2019-06-08T21:08:08.169Z,101749.33
2019-06-08T21:10:38.006Z,101748.20
2019-06-08T21:13:09.082Z,101752.52
2019-06-08T21:15:42.787Z,101763.38
2019-06-08T21:18:19.122Z,101761.67
2019-06-08T21:20:53.057Z,101763.72
2019-06-08T21:23:24.084Z,101771.92
2019-06-08T21:25:59.939Z,101777.41
2019-06-08T21:28:30.595Z,101784.62
2019-06-08T21:31:02.437Z,101791.55
2019-06-08T21:33:33.480Z,101798.16
2019-06-08T21:36:08.484Z,101791.86
2019-06-08T21:38:38.807Z,101795.09
2019-06-08T21:41:10.898Z,101792.83
2019-06-08T21:43:43.035Z,101796.25
2019-06-08T21:46:14.888Z,101800.38
2019-06-08T21:48:48.652Z,101795.94
2019-06-08T21:51:19.104Z,101802.47
2019-06-08T21:53:51.580Z,101798.59
2019-06-08T21:56:23.596Z,101801.66
2019-06-08T21:58:55.043Z,101805.83
2019-06-08T22:01:29.076Z,101812.72
2019-06-08T22:04:00.484Z,101824.20
2019-06-08T22:06:32.092Z,101828.14
2019-06-08T22:09:03.016Z,101830.00
2019-06-08T22:11:37.606Z,101835.03
2019-06-08T22:14:09.342Z,101842.46
2019-06-08T22:16:42.986Z,101845.22
2019-06-08T22:19:13.912Z,101842.84
2019-06-08T22:21:45.137Z,101840.84
2019-06-08T22:24:17.207Z,101841.02
2019-06-08T22:26:48.224Z,101845.84
2019-06-08T22:29:19.105Z,101848.64
2019-06-08T22:31:52.207Z,101847.53
2019-06-08T22:34:23.285Z,101850.88
2019-06-08T22:36:54.229Z,101845.58
2019-06-08T22:39:27.993Z,101844.72
2019-06-08T22:42:00.897Z,101849.89
2019-06-08T22:44:31.268Z,101848.25
2019-06-08T22:47:03.604Z,101850.44
2019-06-08T22:49:35.234Z,101856.78
2019-06-08T22:52:08.251Z,101854.75
2019-06-08T22:54:38.581Z,101866.48
2019-06-08T22:57:09.777Z,101857.94
2019-06-08T22:59:41.116Z,101867.87
2019-06-08T23:02:11.951Z,101869.89
2019-06-08T23:04:43.084Z,101875.06
2019-06-08T23:07:26.555Z,101881.43
2019-06-08T23:09:47.846Z,101879.55
2019-06-08T23:12:19.056Z,101879.78
2019-06-08T23:14:50.188Z,101883.02
2019-06-08T23:17:22.092Z,101883.36
2019-06-08T23:19:53.233Z,101887.09
2019-06-08T23:22:24.298Z,101886.34
2019-06-08T23:24:55.626Z,101878.70
2019-06-08T23:27:27.162Z,101879.44
2019-06-08T23:30:00.554Z,101885.28
2019-06-08T23:32:31.840Z,101892.69
2019-06-08T23:35:04.834Z,101891.34
2019-06-08T23:37:37.403Z,101888.39
2019-06-08T23:40:09.333Z,101892.69
2019-06-08T23:42:40.564Z,101902.30
2019-06-08T23:45:11.704Z,101902.25
2019-06-08T23:47:42.764Z,101908.46
2019-06-08T23:50:13.904Z,101901.66
2019-06-08T23:52:47.539Z,101906.36
2019-06-08T23:55:18.196Z,101904.33
2019-06-08T23:57:49.172Z,101906.39
